Portada
METAR-TAF:

METAR-TAF

Aeroports :

NWS Office

Pohnpei, Micronèsia

latitud: 06-58N, longitud: 158-13E, altitud: 39 m

Observació

L'informe es va fer fa 53 minuts, a les 08:52 UTC
Vent 5 kt del Est/Sud-Est
Temperatura 28°C
Humitat 70%
Pressió 1012 hPa
Visibilitat: 24.1 km
Escasses núvols a una alçada de 1800 ft
Escasses núvols a una alçada de 30000 ft

METAR: PTTP 080852Z 12005KT 15SM FEW018 FEW300 28/22 A2987 RMK SLP115 8/101 T02780222 52024

Hora: 20:45 (09:45 UTC)


TAF: manca

Observacions i pronòstics meteorològics de més de 4000 aeroports (METAR i TAF).

Les estacions disponibles són els punts grocs i vermells al mapa.

Posi el ratolí al punt desitjat per veure el nom de l'estació.

Feu clic per veure les observacions i els pronòstics meteorològics.

Per canviar el mapa: feu clic els botons verds amb una creu de color negre per apropar; al botó verd amb un guió per allunyar la imatge; o en les fletxes verdes per a mapes adjacents.


METAR-TAF: